createdAt,value
2022-12-20T00:01:45.094Z,8.97
2022-12-20T00:06:46.365Z,9.00
2022-12-20T00:11:47.579Z,9.00
2022-12-20T00:16:48.790Z,9.05
2022-12-20T00:21:49.995Z,9.08
2022-12-20T00:26:51.184Z,9.14
2022-12-20T00:31:52.545Z,9.28
2022-12-20T00:36:53.833Z,9.31
2022-12-20T00:41:55.305Z,9.38
2022-12-20T00:46:56.589Z,9.44
2022-12-20T00:51:57.824Z,9.34
2022-12-20T00:56:59.103Z,9.22
2022-12-20T01:02:00.430Z,9.12
2022-12-20T01:07:01.860Z,9.02
2022-12-20T01:12:03.013Z,8.95
2022-12-20T01:17:04.308Z,8.90
2022-12-20T01:22:05.560Z,8.87
2022-12-20T01:27:06.732Z,8.85
2022-12-20T01:32:08.012Z,8.80
2022-12-20T01:37:09.228Z,8.83
2022-12-20T01:42:10.357Z,8.80
2022-12-20T01:47:11.532Z,8.82
2022-12-20T01:52:13.506Z,8.82
2022-12-20T01:57:15.380Z,8.75
2022-12-20T02:02:16.596Z,8.67
2022-12-20T02:07:17.904Z,8.58
2022-12-20T02:12:19.053Z,8.50
2022-12-20T02:17:20.251Z,8.45
2022-12-20T02:22:21.408Z,8.43
2022-12-20T02:27:22.557Z,8.40
2022-12-20T02:32:23.730Z,8.37
2022-12-20T02:37:25.749Z,8.33
2022-12-20T02:42:26.971Z,8.30
2022-12-20T02:47:28.194Z,8.26
2022-12-20T02:52:30.947Z,8.23
2022-12-20T02:57:32.123Z,8.28
2022-12-20T03:02:53.370Z,8.28
2022-12-20T03:07:54.731Z,8.29
2022-12-20T03:12:55.932Z,8.32
2022-12-20T03:17:57.108Z,8.30
2022-12-20T03:22:58.326Z,8.31
2022-12-20T03:27:59.496Z,8.32
2022-12-20T03:33:01.010Z,8.36
2022-12-20T03:38:02.195Z,8.41
2022-12-20T03:43:03.405Z,8.47
2022-12-20T03:48:04.628Z,8.44
2022-12-20T03:53:05.855Z,8.45
2022-12-20T03:58:07.006Z,8.47
2022-12-20T04:03:08.323Z,8.45
2022-12-20T04:08:09.624Z,8.37
2022-12-20T04:13:10.762Z,8.34
2022-12-20T04:18:11.908Z,8.36
2022-12-20T04:23:13.086Z,8.33
2022-12-20T04:28:14.293Z,8.32
2022-12-20T04:33:15.481Z,8.32
2022-12-20T04:38:16.622Z,8.34
2022-12-20T04:43:17.839Z,8.32
2022-12-20T04:48:55.222Z,8.30
2022-12-20T04:53:49.303Z,8.29
2022-12-20T04:58:50.538Z,8.28
2022-12-20T05:03:51.866Z,8.25
2022-12-20T05:08:54.897Z,8.26
2022-12-20T05:13:56.122Z,8.30
2022-12-20T05:18:57.361Z,8.32
2022-12-20T05:24:17.145Z,8.30
2022-12-20T05:29:18.328Z,8.32
2022-12-20T05:34:19.527Z,8.30
2022-12-20T05:39:20.720Z,8.30
2022-12-20T05:44:22.204Z,8.32
2022-12-20T05:49:23.454Z,8.32
2022-12-20T05:54:25.638Z,8.35
2022-12-20T05:59:26.929Z,8.38
2022-12-20T06:04:28.112Z,8.41
2022-12-20T06:09:30.164Z,8.45
2022-12-20T06:14:31.418Z,8.43
2022-12-20T06:19:32.613Z,8.47
2022-12-20T06:24:33.786Z,8.47
2022-12-20T06:29:36.536Z,8.48
2022-12-20T06:34:37.874Z,8.48
2022-12-20T06:39:39.179Z,8.48
2022-12-20T06:44:40.322Z,8.48
2022-12-20T06:49:41.471Z,8.45
2022-12-20T06:54:42.612Z,8.44
2022-12-20T06:59:43.826Z,8.40
2022-12-20T07:04:45.140Z,8.37
2022-12-20T07:09:46.349Z,8.36
2022-12-20T07:14:47.606Z,8.33
2022-12-20T07:19:51.025Z,8.29
2022-12-20T07:24:52.509Z,8.31
2022-12-20T07:29:53.732Z,8.34
2022-12-20T07:34:54.923Z,8.34
2022-12-20T07:39:56.152Z,8.42
2022-12-20T07:44:57.388Z,8.52
2022-12-20T07:49:58.573Z,8.56
2022-12-20T07:54:59.750Z,8.57
2022-12-20T08:00:01.188Z,8.61
2022-12-20T08:05:02.348Z,8.65
2022-12-20T08:10:03.632Z,8.67
2022-12-20T08:15:04.950Z,8.68
2022-12-20T08:20:06.874Z,8.70
2022-12-20T08:25:08.150Z,8.73
2022-12-20T08:30:10.428Z,8.76
2022-12-20T08:35:13.086Z,8.76
2022-12-20T08:40:14.741Z,8.80
2022-12-20T08:45:16.007Z,8.81
2022-12-20T08:50:17.287Z,8.81
2022-12-20T08:55:20.951Z,8.84
2022-12-20T09:00:26.009Z,8.84
2022-12-20T09:05:27.249Z,8.81
2022-12-20T09:10:28.647Z,8.84
2022-12-20T09:15:29.882Z,8.82
2022-12-20T09:20:31.167Z,8.85
2022-12-20T09:25:32.319Z,8.86
2022-12-20T09:30:33.908Z,8.88
2022-12-20T09:35:35.210Z,8.86
2022-12-20T09:40:38.594Z,8.85
2022-12-20T09:45:39.845Z,8.86
2022-12-20T09:50:41.055Z,8.92
2022-12-20T09:55:42.274Z,9.02
2022-12-20T10:00:48.451Z,9.13
2022-12-20T10:05:53.517Z,9.24
2022-12-20T10:10:54.852Z,9.37
2022-12-20T10:15:56.041Z,9.13
2022-12-20T10:20:57.863Z,9.40
2022-12-20T10:25:59.061Z,9.38
2022-12-20T10:31:00.354Z,9.37
2022-12-20T10:36:01.526Z,9.38
2022-12-20T10:46:24.367Z,9.52
2022-12-20T10:51:25.590Z,9.60
2022-12-20T10:56:29.594Z,9.73
2022-12-20T11:01:31.352Z,9.85
2022-12-20T11:06:32.706Z,9.88
2022-12-20T11:11:33.934Z,9.97
2022-12-20T11:16:35.357Z,9.97
2022-12-20T11:21:36.799Z,9.96
2022-12-20T11:26:38.006Z,10.00
2022-12-20T11:31:41.297Z,9.99
2022-12-20T11:36:42.523Z,10.00
2022-12-20T11:41:43.747Z,9.99
2022-12-20T11:46:45.274Z,9.99
2022-12-20T11:51:46.546Z,10.02
2022-12-20T11:56:47.967Z,10.05
2022-12-20T12:01:49.276Z,10.01
2022-12-20T12:06:50.553Z,10.00
2022-12-20T12:12:09.083Z,10.00
2022-12-20T12:17:10.832Z,10.00
2022-12-20T12:22:12.142Z,9.99
2022-12-20T12:27:16.207Z,10.00
2022-12-20T12:32:17.704Z,10.01
2022-12-20T12:37:18.870Z,9.94
2022-12-20T12:42:20.081Z,9.89
2022-12-20T12:47:21.628Z,9.84
2022-12-20T12:52:22.856Z,9.82
2022-12-20T12:57:24.120Z,9.78
2022-12-20T13:02:25.407Z,9.73
2022-12-20T13:07:26.775Z,9.66
2022-12-20T13:12:27.943Z,9.62
2022-12-20T13:17:29.218Z,9.64
2022-12-20T13:22:30.444Z,9.67
2022-12-20T13:27:31.990Z,9.65
2022-12-20T13:32:33.167Z,9.58
2022-12-20T13:37:34.341Z,9.57
2022-12-20T13:42:35.599Z,9.53
2022-12-20T13:47:36.776Z,9.53
2022-12-20T13:52:37.975Z,9.50
2022-12-20T13:57:39.157Z,9.52
2022-12-20T14:02:40.537Z,9.53
2022-12-20T14:07:41.850Z,9.54
2022-12-20T14:12:43.021Z,9.56
2022-12-20T14:17:44.909Z,9.56
2022-12-20T14:22:46.216Z,9.56
2022-12-20T14:27:47.399Z,9.58
2022-12-20T14:32:48.577Z,9.59
2022-12-20T14:37:49.758Z,9.57
2022-12-20T14:42:50.970Z,9.52
2022-12-20T14:47:52.376Z,9.45
2022-12-20T14:52:53.592Z,9.43
2022-12-20T14:57:54.833Z,9.41
2022-12-20T15:02:56.217Z,9.39
2022-12-20T15:07:58.452Z,9.37
2022-12-20T15:12:59.709Z,9.38
2022-12-20T15:18:00.962Z,9.40
2022-12-20T15:23:02.239Z,9.41
2022-12-20T15:28:03.519Z,9.40
2022-12-20T15:33:05.145Z,9.36
2022-12-20T15:38:06.383Z,9.34
2022-12-20T15:43:07.650Z,9.35
2022-12-20T15:48:08.920Z,9.33
2022-12-20T15:53:10.178Z,9.30
2022-12-20T15:58:11.474Z,9.29
2022-12-20T16:03:12.937Z,9.30
2022-12-20T16:08:14.415Z,9.28
2022-12-20T16:13:20.944Z,9.32
2022-12-20T16:18:22.451Z,9.31
2022-12-20T16:23:23.719Z,9.32
2022-12-20T16:28:24.900Z,9.29
2022-12-20T16:33:27.193Z,9.30
2022-12-20T16:38:28.326Z,9.33
2022-12-20T16:43:33.995Z,9.32
2022-12-20T16:48:38.475Z,9.31
2022-12-20T16:54:09.976Z,9.31
2022-12-20T16:59:18.981Z,9.32
2022-12-20T17:04:21.811Z,9.34
2022-12-20T17:14:41.842Z,9.35
2022-12-20T17:19:43.140Z,9.33
2022-12-20T17:24:44.518Z,9.31
2022-12-20T17:29:46.906Z,9.30
2022-12-20T17:34:48.198Z,9.29
2022-12-20T17:39:49.508Z,9.31
2022-12-20T17:44:50.814Z,9.33
2022-12-20T17:49:52.056Z,9.35
2022-12-20T17:54:53.347Z,9.36
2022-12-20T17:59:54.640Z,9.33
2022-12-20T18:04:55.918Z,9.31
2022-12-20T18:09:57.245Z,9.32
2022-12-20T18:14:58.546Z,9.31
2022-12-20T18:19:59.809Z,9.33
2022-12-20T18:25:03.664Z,9.32
2022-12-20T18:30:04.856Z,9.34
2022-12-20T18:35:06.547Z,9.33
2022-12-20T18:40:07.735Z,9.34
2022-12-20T18:45:11.154Z,9.41
2022-12-20T18:50:13.238Z,9.40
2022-12-20T18:55:15.699Z,9.39
2022-12-20T19:00:17.530Z,9.36
2022-12-20T19:05:18.960Z,9.37
2022-12-20T19:10:20.281Z,9.38
2022-12-20T19:15:21.747Z,9.37
2022-12-20T19:20:22.997Z,9.35
2022-12-20T19:25:24.213Z,9.35
2022-12-20T19:30:25.385Z,9.38
2022-12-20T19:35:53.998Z,9.38
2022-12-20T19:40:48.204Z,9.39
2022-12-20T19:45:49.471Z,9.39
2022-12-20T19:50:50.719Z,9.39
2022-12-20T19:55:51.874Z,9.40
2022-12-20T20:00:53.074Z,9.40
2022-12-20T20:05:54.250Z,9.39
2022-12-20T20:10:55.436Z,9.36
2022-12-20T20:15:56.654Z,9.33
2022-12-20T20:20:58.001Z,9.32
2022-12-20T20:25:59.977Z,9.34
2022-12-20T20:31:01.319Z,9.33
2022-12-20T20:36:02.555Z,9.33
2022-12-20T20:41:03.779Z,9.34
2022-12-20T20:46:05.018Z,9.34
2022-12-20T20:51:06.242Z,9.36
2022-12-20T20:56:07.413Z,9.37
2022-12-20T21:01:09.075Z,9.38
2022-12-20T21:11:33.334Z,9.37
2022-12-20T21:16:34.673Z,9.37
2022-12-20T21:21:35.867Z,9.36
2022-12-20T21:26:37.814Z,9.37
2022-12-20T21:31:39.014Z,9.40
2022-12-20T21:36:40.353Z,9.39
2022-12-20T21:41:41.577Z,9.40
2022-12-20T21:46:42.781Z,9.41
2022-12-20T21:51:44.087Z,9.39
2022-12-20T21:56:45.403Z,9.38
2022-12-20T22:01:47.148Z,9.38
2022-12-20T22:06:48.607Z,9.38
2022-12-20T22:11:50.443Z,9.38
2022-12-20T22:16:51.772Z,9.38
2022-12-20T22:21:57.975Z,9.39
2022-12-20T22:26:59.827Z,9.39
2022-12-20T22:32:01.109Z,9.36
2022-12-20T22:37:02.360Z,9.38
2022-12-20T22:42:03.495Z,9.36
2022-12-20T22:47:04.690Z,9.38
2022-12-20T22:52:07.689Z,9.36
2022-12-20T22:57:11.950Z,9.37
2022-12-20T23:02:13.324Z,9.34
2022-12-20T23:07:14.744Z,9.33
2022-12-20T23:12:34.790Z,9.30
2022-12-20T23:17:36.142Z,9.27
2022-12-20T23:22:40.792Z,9.27
2022-12-20T23:27:42.273Z,9.25
2022-12-20T23:32:46.333Z,9.15
2022-12-20T23:37:47.582Z,9.20
2022-12-20T23:42:48.778Z,9.21
2022-12-20T23:47:49.913Z,9.25
2022-12-20T23:52:51.073Z,9.31
2022-12-20T23:57:52.374Z,9.28
